sensor_id;sensor_type;location;lat;lon;timestamp;P1;durP1;ratioP1;P2;durP2;ratioP2
37529;SDS011;23374;52.758;6.872;2023-03-31T00:00:13;11.57;;;2.43;;
37529;SDS011;23374;52.758;6.872;2023-03-31T00:02:33;10.90;;;2.43;;
37529;SDS011;23374;52.758;6.872;2023-03-31T00:04:55;9.23;;;1.40;;
37529;SDS011;23374;52.758;6.872;2023-03-31T00:07:19;13.53;;;1.93;;
37529;SDS011;23374;52.758;6.872;2023-03-31T00:09:43;9.20;;;1.63;;
37529;SDS011;23374;52.758;6.872;2023-03-31T00:12:05;14.67;;;2.07;;
37529;SDS011;23374;52.758;6.872;2023-03-31T00:14:25;7.80;;;1.70;;
37529;SDS011;23374;52.758;6.872;2023-03-31T00:16:46;10.53;;;2.03;;
37529;SDS011;23374;52.758;6.872;2023-03-31T00:19:06;11.93;;;2.20;;
37529;SDS011;23374;52.758;6.872;2023-03-31T00:21:35;11.20;;;1.80;;
37529;SDS011;23374;52.758;6.872;2023-03-31T00:23:57;15.43;;;1.83;;
37529;SDS011;23374;52.758;6.872;2023-03-31T00:26:23;8.43;;;1.60;;
37529;SDS011;23374;52.758;6.872;2023-03-31T00:28:44;14.67;;;1.97;;
37529;SDS011;23374;52.758;6.872;2023-03-31T00:31:05;8.73;;;1.77;;
37529;SDS011;23374;52.758;6.872;2023-03-31T00:33:25;7.83;;;1.60;;
37529;SDS011;23374;52.758;6.872;2023-03-31T00:35:50;11.30;;;1.63;;
37529;SDS011;23374;52.758;6.872;2023-03-31T00:38:10;6.30;;;1.67;;
37529;SDS011;23374;52.758;6.872;2023-03-31T00:40:32;14.27;;;2.03;;
37529;SDS011;23374;52.758;6.872;2023-03-31T00:42:55;9.03;;;2.20;;
37529;SDS011;23374;52.758;6.872;2023-03-31T00:45:29;5.23;;;1.80;;
37529;SDS011;23374;52.758;6.872;2023-03-31T00:47:53;7.83;;;1.90;;
37529;SDS011;23374;52.758;6.872;2023-03-31T00:50:26;8.00;;;1.60;;
37529;SDS011;23374;52.758;6.872;2023-03-31T00:52:55;6.63;;;1.57;;
37529;SDS011;23374;52.758;6.872;2023-03-31T00:55:22;7.83;;;1.87;;
37529;SDS011;23374;52.758;6.872;2023-03-31T00:57:49;10.43;;;2.00;;
37529;SDS011;23374;52.758;6.872;2023-03-31T01:00:13;8.23;;;2.10;;
37529;SDS011;23374;52.758;6.872;2023-03-31T01:02:35;7.50;;;2.13;;
37529;SDS011;23374;52.758;6.872;2023-03-31T01:05:00;9.57;;;2.57;;
37529;SDS011;23374;52.758;6.872;2023-03-31T01:07:36;9.20;;;2.03;;
37529;SDS011;23374;52.758;6.872;2023-03-31T01:10:01;9.77;;;2.50;;
37529;SDS011;23374;52.758;6.872;2023-03-31T01:12:23;6.87;;;2.30;;
37529;SDS011;23374;52.758;6.872;2023-03-31T01:14:45;7.90;;;2.57;;
37529;SDS011;23374;52.758;6.872;2023-03-31T01:17:07;5.73;;;2.10;;
37529;SDS011;23374;52.758;6.872;2023-03-31T01:21:03;5.70;;;2.20;;
37529;SDS011;23374;52.758;6.872;2023-03-31T01:28:50;11.50;;;2.07;;
37529;SDS011;23374;52.758;6.872;2023-03-31T01:50:10;5.60;;;2.20;;
37529;SDS011;23374;52.758;6.872;2023-03-31T01:52:51;8.30;;;2.53;;
37529;SDS011;23374;52.758;6.872;2023-03-31T01:55:25;8.80;;;2.30;;
37529;SDS011;23374;52.758;6.872;2023-03-31T01:58:01;9.77;;;2.30;;
37529;SDS011;23374;52.758;6.872;2023-03-31T02:00:31;7.90;;;2.47;;
37529;SDS011;23374;52.758;6.872;2023-03-31T02:03:09;8.40;;;2.20;;
37529;SDS011;23374;52.758;6.872;2023-03-31T02:06:36;10.53;;;2.37;;
37529;SDS011;23374;52.758;6.872;2023-03-31T02:09:02;11.33;;;1.90;;
37529;SDS011;23374;52.758;6.872;2023-03-31T02:11:28;7.10;;;2.07;;
37529;SDS011;23374;52.758;6.872;2023-03-31T02:13:52;6.23;;;1.73;;
37529;SDS011;23374;52.758;6.872;2023-03-31T02:16:17;3.53;;;1.60;;
37529;SDS011;23374;52.758;6.872;2023-03-31T02:18:43;8.17;;;1.93;;
37529;SDS011;23374;52.758;6.872;2023-03-31T02:21:08;7.90;;;2.33;;
37529;SDS011;23374;52.758;6.872;2023-03-31T02:23:32;7.43;;;2.37;;
37529;SDS011;23374;52.758;6.872;2023-03-31T02:26:30;7.03;;;1.90;;
37529;SDS011;23374;52.758;6.872;2023-03-31T02:28:57;5.80;;;1.93;;
37529;SDS011;23374;52.758;6.872;2023-03-31T02:33:09;8.67;;;1.93;;
37529;SDS011;23374;52.758;6.872;2023-03-31T02:35:31;3.53;;;1.57;;
37529;SDS011;23374;52.758;6.872;2023-03-31T02:37:53;6.67;;;2.00;;
37529;SDS011;23374;52.758;6.872;2023-03-31T02:40:21;3.77;;;1.80;;
37529;SDS011;23374;52.758;6.872;2023-03-31T02:42:46;6.43;;;1.70;;
37529;SDS011;23374;52.758;6.872;2023-03-31T02:45:40;3.00;;;1.70;;
37529;SDS011;23374;52.758;6.872;2023-03-31T02:48:08;7.67;;;1.80;;
37529;SDS011;23374;52.758;6.872;2023-03-31T02:50:38;6.27;;;1.77;;
37529;SDS011;23374;52.758;6.872;2023-03-31T02:54:09;6.47;;;1.57;;
37529;SDS011;23374;52.758;6.872;2023-03-31T03:16:00;7.90;;;2.00;;
37529;SDS011;23374;52.758;6.872;2023-03-31T03:18:27;3.60;;;1.50;;
37529;SDS011;23374;52.758;6.872;2023-03-31T03:20:48;6.77;;;2.13;;
37529;SDS011;23374;52.758;6.872;2023-03-31T03:23:09;7.13;;;1.83;;
37529;SDS011;23374;52.758;6.872;2023-03-31T03:25:30;8.97;;;1.73;;
37529;SDS011;23374;52.758;6.872;2023-03-31T03:27:50;5.73;;;1.80;;
37529;SDS011;23374;52.758;6.872;2023-03-31T03:30:12;6.30;;;1.83;;
37529;SDS011;23374;52.758;6.872;2023-03-31T03:32:33;5.10;;;1.73;;
37529;SDS011;23374;52.758;6.872;2023-03-31T03:34:54;3.20;;;1.50;;
37529;SDS011;23374;52.758;6.872;2023-03-31T03:37:14;5.83;;;1.83;;
37529;SDS011;23374;52.758;6.872;2023-03-31T03:39:35;5.23;;;1.63;;
37529;SDS011;23374;52.758;6.872;2023-03-31T03:41:55;4.93;;;1.87;;
37529;SDS011;23374;52.758;6.872;2023-03-31T03:44:16;3.97;;;1.67;;
37529;SDS011;23374;52.758;6.872;2023-03-31T03:46:37;4.77;;;1.87;;
37529;SDS011;23374;52.758;6.872;2023-03-31T03:48:57;4.63;;;1.70;;
37529;SDS011;23374;52.758;6.872;2023-03-31T03:51:17;3.57;;;1.77;;
37529;SDS011;23374;52.758;6.872;2023-03-31T03:53:38;5.50;;;1.87;;
37529;SDS011;23374;52.758;6.872;2023-03-31T03:55:58;6.60;;;1.83;;
37529;SDS011;23374;52.758;6.872;2023-03-31T03:58:18;4.70;;;1.60;;
37529;SDS011;23374;52.758;6.872;2023-03-31T04:00:39;7.30;;;2.10;;
37529;SDS011;23374;52.758;6.872;2023-03-31T04:02:59;9.83;;;2.10;;
37529;SDS011;23374;52.758;6.872;2023-03-31T04:05:20;3.67;;;1.50;;
37529;SDS011;23374;52.758;6.872;2023-03-31T04:07:40;3.77;;;1.73;;
37529;SDS011;23374;52.758;6.872;2023-03-31T04:10:00;5.23;;;1.57;;
37529;SDS011;23374;52.758;6.872;2023-03-31T04:12:20;8.63;;;1.80;;
37529;SDS011;23374;52.758;6.872;2023-03-31T04:14:41;3.73;;;1.50;;
37529;SDS011;23374;52.758;6.872;2023-03-31T04:17:01;4.57;;;1.80;;
37529;SDS011;23374;52.758;6.872;2023-03-31T04:19:22;5.73;;;2.03;;
37529;SDS011;23374;52.758;6.872;2023-03-31T04:21:44;4.43;;;1.67;;
37529;SDS011;23374;52.758;6.872;2023-03-31T04:24:05;5.80;;;1.80;;
37529;SDS011;23374;52.758;6.872;2023-03-31T04:26:29;5.93;;;2.10;;
37529;SDS011;23374;52.758;6.872;2023-03-31T04:29:01;4.53;;;2.10;;
37529;SDS011;23374;52.758;6.872;2023-03-31T04:31:21;8.67;;;2.20;;
37529;SDS011;23374;52.758;6.872;2023-03-31T04:33:43;5.83;;;1.60;;
37529;SDS011;23374;52.758;6.872;2023-03-31T04:36:05;5.27;;;1.80;;
37529;SDS011;23374;52.758;6.872;2023-03-31T04:38:38;3.80;;;1.90;;
37529;SDS011;23374;52.758;6.872;2023-03-31T04:40:58;4.40;;;1.73;;
37529;SDS011;23374;52.758;6.872;2023-03-31T04:43:19;4.53;;;1.90;;
37529;SDS011;23374;52.758;6.872;2023-03-31T04:45:40;5.13;;;1.73;;
37529;SDS011;23374;52.758;6.872;2023-03-31T04:48:01;6.83;;;2.03;;
37529;SDS011;23374;52.758;6.872;2023-03-31T04:50:21;6.60;;;2.03;;
37529;SDS011;23374;52.758;6.872;2023-03-31T04:52:41;6.00;;;1.73;;
37529;SDS011;23374;52.758;6.872;2023-03-31T04:55:02;13.33;;;2.07;;
37529;SDS011;23374;52.758;6.872;2023-03-31T04:57:23;5.07;;;1.90;;
37529;SDS011;23374;52.758;6.872;2023-03-31T04:59:44;6.73;;;1.83;;
37529;SDS011;23374;52.758;6.872;2023-03-31T05:02:04;5.33;;;2.07;;
37529;SDS011;23374;52.758;6.872;2023-03-31T05:04:24;6.10;;;2.20;;
37529;SDS011;23374;52.758;6.872;2023-03-31T05:06:45;7.83;;;2.17;;
37529;SDS011;23374;52.758;6.872;2023-03-31T05:09:05;8.43;;;2.20;;
37529;SDS011;23374;52.758;6.872;2023-03-31T05:11:28;4.47;;;2.00;;
37529;SDS011;23374;52.758;6.872;2023-03-31T05:13:48;4.33;;;1.73;;
37529;SDS011;23374;52.758;6.872;2023-03-31T05:16:11;6.37;;;1.93;;
37529;SDS011;23374;52.758;6.872;2023-03-31T05:18:33;8.70;;;2.37;;
37529;SDS011;23374;52.758;6.872;2023-03-31T05:20:53;5.33;;;2.10;;
37529;SDS011;23374;52.758;6.872;2023-03-31T05:23:14;10.60;;;2.10;;
37529;SDS011;23374;52.758;6.872;2023-03-31T05:25:34;8.10;;;2.43;;
37529;SDS011;23374;52.758;6.872;2023-03-31T05:27:50;8.57;;;2.07;;
37529;SDS011;23374;52.758;6.872;2023-03-31T05:30:10;7.77;;;2.07;;
37529;SDS011;23374;52.758;6.872;2023-03-31T05:32:31;3.77;;;1.93;;
37529;SDS011;23374;52.758;6.872;2023-03-31T05:34:52;5.63;;;2.43;;
37529;SDS011;23374;52.758;6.872;2023-03-31T05:37:15;6.10;;;2.37;;
37529;SDS011;23374;52.758;6.872;2023-03-31T05:39:36;5.10;;;1.87;;
37529;SDS011;23374;52.758;6.872;2023-03-31T05:41:56;8.93;;;2.60;;
37529;SDS011;23374;52.758;6.872;2023-03-31T05:44:16;7.30;;;2.43;;
37529;SDS011;23374;52.758;6.872;2023-03-31T05:46:39;5.07;;;2.37;;
37529;SDS011;23374;52.758;6.872;2023-03-31T05:48:59;7.83;;;2.90;;
37529;SDS011;23374;52.758;6.872;2023-03-31T05:51:21;5.80;;;2.60;;
37529;SDS011;23374;52.758;6.872;2023-03-31T05:53:42;5.87;;;2.47;;
37529;SDS011;23374;52.758;6.872;2023-03-31T05:56:04;9.17;;;2.83;;
37529;SDS011;23374;52.758;6.872;2023-03-31T05:58:26;7.83;;;3.07;;
37529;SDS011;23374;52.758;6.872;2023-03-31T06:00:48;8.20;;;2.67;;
37529;SDS011;23374;52.758;6.872;2023-03-31T06:03:08;10.03;;;2.73;;
37529;SDS011;23374;52.758;6.872;2023-03-31T06:05:28;8.30;;;2.40;;
37529;SDS011;23374;52.758;6.872;2023-03-31T06:07:51;6.30;;;2.90;;
37529;SDS011;23374;52.758;6.872;2023-03-31T06:10:12;4.20;;;2.20;;
37529;SDS011;23374;52.758;6.872;2023-03-31T06:12:32;4.30;;;2.10;;
37529;SDS011;23374;52.758;6.872;2023-03-31T06:14:53;5.47;;;2.37;;
37529;SDS011;23374;52.758;6.872;2023-03-31T06:17:14;6.10;;;2.17;;
37529;SDS011;23374;52.758;6.872;2023-03-31T06:19:34;4.93;;;2.20;;
37529;SDS011;23374;52.758;6.872;2023-03-31T06:21:54;5.30;;;2.13;;
37529;SDS011;23374;52.758;6.872;2023-03-31T06:24:15;10.30;;;2.03;;
37529;SDS011;23374;52.758;6.872;2023-03-31T06:26:35;5.87;;;1.73;;
37529;SDS011;23374;52.758;6.872;2023-03-31T06:28:56;3.43;;;1.73;;
37529;SDS011;23374;52.758;6.872;2023-03-31T06:31:18;5.03;;;1.63;;
37529;SDS011;23374;52.758;6.872;2023-03-31T06:33:41;4.90;;;2.00;;
37529;SDS011;23374;52.758;6.872;2023-03-31T06:36:02;9.20;;;2.20;;
37529;SDS011;23374;52.758;6.872;2023-03-31T06:38:24;8.00;;;2.30;;
37529;SDS011;23374;52.758;6.872;2023-03-31T06:40:45;3.93;;;1.90;;
37529;SDS011;23374;52.758;6.872;2023-03-31T06:43:05;8.03;;;2.10;;
37529;SDS011;23374;52.758;6.872;2023-03-31T06:45:25;9.90;;;2.20;;
37529;SDS011;23374;52.758;6.872;2023-03-31T06:47:45;5.23;;;1.97;;
37529;SDS011;23374;52.758;6.872;2023-03-31T06:50:07;5.53;;;2.17;;
37529;SDS011;23374;52.758;6.872;2023-03-31T06:52:30;4.00;;;2.17;;
37529;SDS011;23374;52.758;6.872;2023-03-31T06:54:50;5.13;;;1.90;;
37529;SDS011;23374;52.758;6.872;2023-03-31T06:57:11;5.33;;;2.30;;
37529;SDS011;23374;52.758;6.872;2023-03-31T06:59:32;7.50;;;2.00;;
37529;SDS011;23374;52.758;6.872;2023-03-31T07:01:52;7.67;;;2.40;;
37529;SDS011;23374;52.758;6.872;2023-03-31T07:04:12;5.60;;;2.00;;
37529;SDS011;23374;52.758;6.872;2023-03-31T07:06:33;10.63;;;2.20;;
37529;SDS011;23374;52.758;6.872;2023-03-31T07:08:54;3.93;;;1.67;;
37529;SDS011;23374;52.758;6.872;2023-03-31T07:11:14;3.97;;;2.00;;
37529;SDS011;23374;52.758;6.872;2023-03-31T07:13:35;3.63;;;1.90;;
37529;SDS011;23374;52.758;6.872;2023-03-31T07:15:55;8.20;;;2.20;;
37529;SDS011;23374;52.758;6.872;2023-03-31T07:18:16;4.80;;;2.30;;
37529;SDS011;23374;52.758;6.872;2023-03-31T07:20:37;3.17;;;1.97;;
37529;SDS011;23374;52.758;6.872;2023-03-31T07:22:58;8.37;;;2.40;;
37529;SDS011;23374;52.758;6.872;2023-03-31T07:25:18;3.00;;;1.73;;
37529;SDS011;23374;52.758;6.872;2023-03-31T07:27:39;4.10;;;2.13;;
37529;SDS011;23374;52.758;6.872;2023-03-31T07:30:00;5.37;;;2.13;;
37529;SDS011;23374;52.758;6.872;2023-03-31T07:32:21;3.47;;;1.77;;
37529;SDS011;23374;52.758;6.872;2023-03-31T07:34:42;9.90;;;2.30;;
37529;SDS011;23374;52.758;6.872;2023-03-31T07:37:02;8.10;;;2.57;;
37529;SDS011;23374;52.758;6.872;2023-03-31T07:39:23;6.80;;;2.67;;
37529;SDS011;23374;52.758;6.872;2023-03-31T07:41:43;6.10;;;2.63;;
37529;SDS011;23374;52.758;6.872;2023-03-31T07:44:03;6.67;;;2.57;;
37529;SDS011;23374;52.758;6.872;2023-03-31T07:46:25;6.57;;;2.90;;
37529;SDS011;23374;52.758;6.872;2023-03-31T07:48:47;6.33;;;2.70;;
37529;SDS011;23374;52.758;6.872;2023-03-31T07:51:08;8.00;;;3.07;;
37529;SDS011;23374;52.758;6.872;2023-03-31T07:53:28;7.57;;;2.60;;
37529;SDS011;23374;52.758;6.872;2023-03-31T07:55:49;6.73;;;1.93;;
37529;SDS011;23374;52.758;6.872;2023-03-31T07:58:10;6.27;;;2.30;;
37529;SDS011;23374;52.758;6.872;2023-03-31T08:00:31;4.67;;;2.87;;
37529;SDS011;23374;52.758;6.872;2023-03-31T08:02:51;5.80;;;3.17;;
37529;SDS011;23374;52.758;6.872;2023-03-31T08:05:13;6.43;;;2.40;;
37529;SDS011;23374;52.758;6.872;2023-03-31T08:07:36;6.37;;;2.20;;
37529;SDS011;23374;52.758;6.872;2023-03-31T08:09:59;6.60;;;2.37;;
37529;SDS011;23374;52.758;6.872;2023-03-31T08:12:19;4.50;;;2.80;;
37529;SDS011;23374;52.758;6.872;2023-03-31T08:14:40;3.83;;;2.07;;
37529;SDS011;23374;52.758;6.872;2023-03-31T08:17:01;8.30;;;2.50;;
37529;SDS011;23374;52.758;6.872;2023-03-31T08:19:23;5.57;;;2.73;;
37529;SDS011;23374;52.758;6.872;2023-03-31T08:21:47;5.10;;;2.60;;
37529;SDS011;23374;52.758;6.872;2023-03-31T08:24:07;7.63;;;2.63;;
37529;SDS011;23374;52.758;6.872;2023-03-31T08:26:27;9.80;;;2.70;;
37529;SDS011;23374;52.758;6.872;2023-03-31T08:28:47;4.23;;;2.70;;
37529;SDS011;23374;52.758;6.872;2023-03-31T08:31:08;13.13;;;3.03;;
37529;SDS011;23374;52.758;6.872;2023-03-31T08:33:29;7.37;;;2.50;;
37529;SDS011;23374;52.758;6.872;2023-03-31T08:35:49;8.00;;;2.97;;
37529;SDS011;23374;52.758;6.872;2023-03-31T08:38:09;8.93;;;3.00;;
37529;SDS011;23374;52.758;6.872;2023-03-31T08:40:31;6.87;;;2.13;;
37529;SDS011;23374;52.758;6.872;2023-03-31T08:42:54;7.83;;;2.70;;
37529;SDS011;23374;52.758;6.872;2023-03-31T08:45:34;6.93;;;2.73;;
37529;SDS011;23374;52.758;6.872;2023-03-31T08:48:48;7.17;;;2.30;;
37529;SDS011;23374;52.758;6.872;2023-03-31T08:51:25;8.20;;;2.00;;
37529;SDS011;23374;52.758;6.872;2023-03-31T08:53:51;5.87;;;2.03;;
37529;SDS011;23374;52.758;6.872;2023-03-31T08:56:34;8.03;;;2.33;;
37529;SDS011;23374;52.758;6.872;2023-03-31T08:58:58;7.20;;;2.10;;
37529;SDS011;23374;52.758;6.872;2023-03-31T09:01:43;5.60;;;2.33;;
37529;SDS011;23374;52.758;6.872;2023-03-31T09:08:45;3.50;;;1.93;;
37529;SDS011;23374;52.758;6.872;2023-03-31T09:11:46;5.10;;;1.80;;
37529;SDS011;23374;52.758;6.872;2023-03-31T09:14:30;9.57;;;1.90;;
37529;SDS011;23374;52.758;6.872;2023-03-31T09:17:19;6.73;;;1.60;;
37529;SDS011;23374;52.758;6.872;2023-03-31T09:19:48;2.03;;;1.60;;
37529;SDS011;23374;52.758;6.872;2023-03-31T09:22:40;5.17;;;1.77;;
37529;SDS011;23374;52.758;6.872;2023-03-31T09:25:15;3.27;;;1.03;;
37529;SDS011;23374;52.758;6.872;2023-03-31T09:27:44;4.73;;;1.40;;
37529;SDS011;23374;52.758;6.872;2023-03-31T09:30:32;3.53;;;1.60;;
37529;SDS011;23374;52.758;6.872;2023-03-31T09:33:03;4.77;;;2.03;;
37529;SDS011;23374;52.758;6.872;2023-03-31T09:35:50;3.40;;;1.20;;
37529;SDS011;23374;52.758;6.872;2023-03-31T09:38:11;1.50;;;0.90;;
37529;SDS011;23374;52.758;6.872;2023-03-31T09:40:34;4.83;;;1.57;;
37529;SDS011;23374;52.758;6.872;2023-03-31T09:43:10;6.93;;;1.70;;
37529;SDS011;23374;52.758;6.872;2023-03-31T09:45:40;2.50;;;1.20;;
37529;SDS011;23374;52.758;6.872;2023-03-31T09:48:06;4.43;;;1.40;;
37529;SDS011;23374;52.758;6.872;2023-03-31T09:50:38;5.13;;;1.83;;
37529;SDS011;23374;52.758;6.872;2023-03-31T09:53:14;6.50;;;1.83;;
37529;SDS011;23374;52.758;6.872;2023-03-31T09:55:52;4.57;;;1.90;;
37529;SDS011;23374;52.758;6.872;2023-03-31T09:58:15;8.97;;;1.73;;
37529;SDS011;23374;52.758;6.872;2023-03-31T10:00:36;9.87;;;2.20;;
37529;SDS011;23374;52.758;6.872;2023-03-31T10:03:02;7.10;;;2.30;;
37529;SDS011;23374;52.758;6.872;2023-03-31T10:05:34;1.83;;;1.00;;
37529;SDS011;23374;52.758;6.872;2023-03-31T10:11:28;3.33;;;1.20;;
37529;SDS011;23374;52.758;6.872;2023-03-31T10:13:59;3.17;;;1.00;;
37529;SDS011;23374;52.758;6.872;2023-03-31T10:16:43;5.63;;;1.40;;
37529;SDS011;23374;52.758;6.872;2023-03-31T10:22:04;2.03;;;1.40;;
37529;SDS011;23374;52.758;6.872;2023-03-31T10:24:44;7.97;;;1.77;;
37529;SDS011;23374;52.758;6.872;2023-03-31T10:27:07;3.20;;;1.40;;
37529;SDS011;23374;52.758;6.872;2023-03-31T10:29:39;2.47;;;1.03;;
37529;SDS011;23374;52.758;6.872;2023-03-31T10:32:04;3.93;;;1.37;;
37529;SDS011;23374;52.758;6.872;2023-03-31T10:34:31;3.73;;;1.23;;
37529;SDS011;23374;52.758;6.872;2023-03-31T10:36:52;5.37;;;1.50;;
37529;SDS011;23374;52.758;6.872;2023-03-31T10:39:16;2.60;;;0.93;;
37529;SDS011;23374;52.758;6.872;2023-03-31T10:41:38;4.53;;;1.23;;
37529;SDS011;23374;52.758;6.872;2023-03-31T10:44:00;1.43;;;0.93;;
37529;SDS011;23374;52.758;6.872;2023-03-31T10:46:48;3.73;;;1.10;;
37529;SDS011;23374;52.758;6.872;2023-03-31T10:49:19;3.87;;;1.10;;
37529;SDS011;23374;52.758;6.872;2023-03-31T10:51:50;1.93;;;0.87;;
37529;SDS011;23374;52.758;6.872;2023-03-31T10:54:12;3.93;;;1.17;;
37529;SDS011;23374;52.758;6.872;2023-03-31T10:56:51;2.23;;;0.80;;
37529;SDS011;23374;52.758;6.872;2023-03-31T10:59:22;2.87;;;0.97;;
37529;SDS011;23374;52.758;6.872;2023-03-31T11:03:47;2.30;;;1.00;;
37529;SDS011;23374;52.758;6.872;2023-03-31T11:09:18;5.37;;;1.53;;
37529;SDS011;23374;52.758;6.872;2023-03-31T11:12:48;2.90;;;1.20;;
37529;SDS011;23374;52.758;6.872;2023-03-31T11:15:34;1.97;;;1.00;;
37529;SDS011;23374;52.758;6.872;2023-03-31T11:23:14;3.47;;;1.10;;
37529;SDS011;23374;52.758;6.872;2023-03-31T11:34:06;4.50;;;1.20;;
37529;SDS011;23374;52.758;6.872;2023-03-31T11:37:03;3.20;;;1.40;;
37529;SDS011;23374;52.758;6.872;2023-03-31T11:41:25;2.60;;;1.20;;
37529;SDS011;23374;52.758;6.872;2023-03-31T11:44:02;7.97;;;1.40;;
37529;SDS011;23374;52.758;6.872;2023-03-31T11:47:11;3.70;;;1.40;;
37529;SDS011;23374;52.758;6.872;2023-03-31T11:49:40;3.40;;;1.20;;
37529;SDS011;23374;52.758;6.872;2023-03-31T11:52:16;4.80;;;1.33;;
37529;SDS011;23374;52.758;6.872;2023-03-31T11:55:14;6.17;;;1.40;;
37529;SDS011;23374;52.758;6.872;2023-03-31T11:57:39;3.20;;;1.50;;
37529;SDS011;23374;52.758;6.872;2023-03-31T12:00:23;8.87;;;1.63;;
37529;SDS011;23374;52.758;6.872;2023-03-31T12:05:07;6.30;;;1.50;;
37529;SDS011;23374;52.758;6.872;2023-03-31T12:09:18;3.70;;;1.10;;
37529;SDS011;23374;52.758;6.872;2023-03-31T12:13:41;6.13;;;1.60;;
37529;SDS011;23374;52.758;6.872;2023-03-31T12:16:22;3.13;;;1.20;;
37529;SDS011;23374;52.758;6.872;2023-03-31T12:19:13;5.77;;;1.80;;
37529;SDS011;23374;52.758;6.872;2023-03-31T12:22:21;8.90;;;2.10;;
37529;SDS011;23374;52.758;6.872;2023-03-31T12:25:25;4.80;;;2.00;;
37529;SDS011;23374;52.758;6.872;2023-03-31T12:27:56;9.73;;;2.67;;
37529;SDS011;23374;52.758;6.872;2023-03-31T12:30:31;5.37;;;3.00;;
37529;SDS011;23374;52.758;6.872;2023-03-31T12:33:06;8.60;;;2.50;;
37529;SDS011;23374;52.758;6.872;2023-03-31T12:36:06;6.50;;;2.70;;
37529;SDS011;23374;52.758;6.872;2023-03-31T12:41:23;10.43;;;3.40;;
37529;SDS011;23374;52.758;6.872;2023-03-31T12:50:21;9.47;;;2.77;;
37529;SDS011;23374;52.758;6.872;2023-03-31T12:53:23;8.13;;;2.90;;
37529;SDS011;23374;52.758;6.872;2023-03-31T12:56:11;9.63;;;2.27;;
37529;SDS011;23374;52.758;6.872;2023-03-31T12:58:37;6.27;;;2.70;;
37529;SDS011;23374;52.758;6.872;2023-03-31T13:01:25;12.17;;;2.50;;
37529;SDS011;23374;52.758;6.872;2023-03-31T13:04:24;9.43;;;2.10;;
37529;SDS011;23374;52.758;6.872;2023-03-31T13:06:54;6.13;;;2.50;;
37529;SDS011;23374;52.758;6.872;2023-03-31T13:10:57;8.30;;;1.80;;
37529;SDS011;23374;52.758;6.872;2023-03-31T13:13:18;8.93;;;2.00;;
37529;SDS011;23374;52.758;6.872;2023-03-31T13:15:39;7.37;;;1.77;;
37529;SDS011;23374;52.758;6.872;2023-03-31T13:18:17;7.77;;;1.50;;
37529;SDS011;23374;52.758;6.872;2023-03-31T13:20:40;5.20;;;2.10;;
37529;SDS011;23374;52.758;6.872;2023-03-31T13:23:18;9.23;;;1.87;;
37529;SDS011;23374;52.758;6.872;2023-03-31T13:25:51;6.77;;;1.63;;
37529;SDS011;23374;52.758;6.872;2023-03-31T13:32:04;9.63;;;1.93;;
37529;SDS011;23374;52.758;6.872;2023-03-31T13:35:19;4.27;;;1.53;;
37529;SDS011;23374;52.758;6.872;2023-03-31T13:44:16;9.73;;;1.73;;
37529;SDS011;23374;52.758;6.872;2023-03-31T13:47:16;11.43;;;2.10;;
37529;SDS011;23374;52.758;6.872;2023-03-31T14:06:43;7.40;;;1.50;;
37529;SDS011;23374;52.758;6.872;2023-03-31T14:09:11;7.93;;;1.40;;
37529;SDS011;23374;52.758;6.872;2023-03-31T14:11:40;6.00;;;1.50;;
37529;SDS011;23374;52.758;6.872;2023-03-31T14:14:12;4.90;;;1.60;;
37529;SDS011;23374;52.758;6.872;2023-03-31T14:16:39;8.53;;;1.73;;
37529;SDS011;23374;52.758;6.872;2023-03-31T14:19:35;5.27;;;1.40;;
37529;SDS011;23374;52.758;6.872;2023-03-31T14:22:45;7.43;;;1.37;;
37529;SDS011;23374;52.758;6.872;2023-03-31T14:26:20;5.73;;;1.63;;
37529;SDS011;23374;52.758;6.872;2023-03-31T14:30:36;5.67;;;1.33;;
37529;SDS011;23374;52.758;6.872;2023-03-31T14:33:24;6.10;;;1.70;;
37529;SDS011;23374;52.758;6.872;2023-03-31T14:37:25;5.37;;;1.43;;
37529;SDS011;23374;52.758;6.872;2023-03-31T14:39:51;7.40;;;1.40;;
37529;SDS011;23374;52.758;6.872;2023-03-31T14:42:17;8.30;;;1.50;;
37529;SDS011;23374;52.758;6.872;2023-03-31T14:44:44;5.57;;;1.33;;
37529;SDS011;23374;52.758;6.872;2023-03-31T14:47:05;6.93;;;1.53;;
37529;SDS011;23374;52.758;6.872;2023-03-31T14:49:37;3.40;;;1.50;;
37529;SDS011;23374;52.758;6.872;2023-03-31T14:52:00;5.63;;;1.30;;
37529;SDS011;23374;52.758;6.872;2023-03-31T14:54:25;9.17;;;1.60;;
37529;SDS011;23374;52.758;6.872;2023-03-31T14:56:51;8.03;;;1.53;;
37529;SDS011;23374;52.758;6.872;2023-03-31T14:59:18;9.67;;;1.60;;
37529;SDS011;23374;52.758;6.872;2023-03-31T15:01:47;8.13;;;2.27;;
37529;SDS011;23374;52.758;6.872;2023-03-31T15:04:11;6.47;;;1.60;;
37529;SDS011;23374;52.758;6.872;2023-03-31T15:06:34;9.10;;;1.67;;
37529;SDS011;23374;52.758;6.872;2023-03-31T15:09:01;5.10;;;1.50;;
37529;SDS011;23374;52.758;6.872;2023-03-31T15:11:22;7.23;;;1.40;;
37529;SDS011;23374;52.758;6.872;2023-03-31T15:14:01;6.60;;;1.80;;
37529;SDS011;23374;52.758;6.872;2023-03-31T15:16:43;7.60;;;1.63;;
37529;SDS011;23374;52.758;6.872;2023-03-31T15:19:10;6.47;;;1.30;;
37529;SDS011;23374;52.758;6.872;2023-03-31T15:21:36;4.13;;;1.43;;
37529;SDS011;23374;52.758;6.872;2023-03-31T15:23:57;8.67;;;1.87;;
37529;SDS011;23374;52.758;6.872;2023-03-31T15:26:18;9.27;;;1.67;;
37529;SDS011;23374;52.758;6.872;2023-03-31T15:28:49;7.00;;;1.70;;
37529;SDS011;23374;52.758;6.872;2023-03-31T15:31:14;7.13;;;1.93;;
37529;SDS011;23374;52.758;6.872;2023-03-31T15:33:35;7.27;;;2.03;;
37529;SDS011;23374;52.758;6.872;2023-03-31T15:36:00;9.80;;;1.77;;
37529;SDS011;23374;52.758;6.872;2023-03-31T15:38:21;5.73;;;2.07;;
37529;SDS011;23374;52.758;6.872;2023-03-31T15:40:49;6.47;;;1.67;;
37529;SDS011;23374;52.758;6.872;2023-03-31T15:43:17;12.23;;;2.30;;
37529;SDS011;23374;52.758;6.872;2023-03-31T15:45:51;6.20;;;1.20;;
37529;SDS011;23374;52.758;6.872;2023-03-31T15:48:50;7.20;;;1.57;;
37529;SDS011;23374;52.758;6.872;2023-03-31T15:51:58;9.40;;;2.00;;
37529;SDS011;23374;52.758;6.872;2023-03-31T15:54:38;6.33;;;1.43;;
37529;SDS011;23374;52.758;6.872;2023-03-31T15:57:00;10.03;;;1.97;;
37529;SDS011;23374;52.758;6.872;2023-03-31T15:59:23;9.73;;;1.57;;
37529;SDS011;23374;52.758;6.872;2023-03-31T16:01:47;7.60;;;1.40;;
37529;SDS011;23374;52.758;6.872;2023-03-31T16:04:09;6.77;;;1.50;;
37529;SDS011;23374;52.758;6.872;2023-03-31T16:09:54;7.07;;;1.20;;
37529;SDS011;23374;52.758;6.872;2023-03-31T16:12:32;4.23;;;0.90;;
37529;SDS011;23374;52.758;6.872;2023-03-31T16:15:12;5.63;;;1.00;;
37529;SDS011;23374;52.758;6.872;2023-03-31T16:17:37;5.63;;;0.90;;
37529;SDS011;23374;52.758;6.872;2023-03-31T16:20:31;3.40;;;1.37;;
37529;SDS011;23374;52.758;6.872;2023-03-31T16:22:59;4.10;;;1.00;;
37529;SDS011;23374;52.758;6.872;2023-03-31T16:25:23;3.87;;;0.90;;
37529;SDS011;23374;52.758;6.872;2023-03-31T16:27:47;2.20;;;0.90;;
37529;SDS011;23374;52.758;6.872;2023-03-31T16:30:18;2.40;;;0.83;;
37529;SDS011;23374;52.758;6.872;2023-03-31T16:33:12;2.33;;;0.90;;
37529;SDS011;23374;52.758;6.872;2023-03-31T16:35:38;7.40;;;1.20;;
37529;SDS011;23374;52.758;6.872;2023-03-31T16:38:00;4.70;;;1.20;;
37529;SDS011;23374;52.758;6.872;2023-03-31T16:40:21;2.00;;;0.70;;
37529;SDS011;23374;52.758;6.872;2023-03-31T16:42:42;2.23;;;0.70;;
37529;SDS011;23374;52.758;6.872;2023-03-31T16:45:03;2.70;;;0.70;;
37529;SDS011;23374;52.758;6.872;2023-03-31T16:47:24;2.27;;;1.00;;
37529;SDS011;23374;52.758;6.872;2023-03-31T16:49:45;3.50;;;0.70;;
37529;SDS011;23374;52.758;6.872;2023-03-31T16:52:05;3.40;;;0.70;;
37529;SDS011;23374;52.758;6.872;2023-03-31T16:54:30;2.03;;;0.80;;
37529;SDS011;23374;52.758;6.872;2023-03-31T16:56:51;3.67;;;1.00;;
37529;SDS011;23374;52.758;6.872;2023-03-31T16:59:11;3.73;;;0.80;;